メインページ
METAR-TAF:

METAR-TAF

空港 :

ダウンタウン・マンハッタン・ヘリポート

ニューヨーク, ニューヨーク, アメリカ合衆国

緯度: 40-42-04N, 経度: 074-00-32W, 海抜: 2m

現時点の気象観測

当レポートは21分前の15:56(UTC)に作成
の風 6kt
気温 -3°C
湿度 58%
気圧 1033 hPa
高度10000ftの曇り

METAR: KJRB 181556Z AUTO 17006KT OVC100 M03/M10 A3049 RMK AO2 SLP325 T10281100 PWINO FZRANO

時間: 11:17 (16:17 UTC)


TAF: 見つかりません

4,000以上の空港の気象観測と天気予報(METAR報とTAF報)

利用可能な観測所は地図上に黄色い丸と赤い丸で示す。

丸の上にカーソルを重ねると観測所名を参照できる。

次にクリックすると気象観測と天気予報を参照できる。

マップの切り替え:黒色「×」印の緑ボタンをクリックして拡大、「-」印の緑ボタンをクリックして縮小、緑色の三角印をクリックして隣りの地図に切り替え


METAR-TAF: